Time;durP1;ratioP1;P1;durP2;ratioP2;P2;SDS_P1;SDS_P2;PMS_P1;PMS_P2;Temp;Humidity;BMP_temperature;BMP_pressure;BME280_temperature;BME280_humidity;BME280_pressure;Samples;Min_cycle;Max_cycle;Signal;HPM_P1;HPM_P2
2021/07/15 00:01:51;;;;;;;1.60;1.00;;;17.20;98.20;;;;;;5008540;28;20479;-81
2021/07/15 00:04:19;;;;;;;1.60;1.00;;;17.20;98.20;;;;;;5013580;28;20468;-80
2021/07/15 00:06:46;;;;;;;1.60;0.90;;;17.20;98.20;;;;;;5002661;28;20497;-81
2021/07/15 00:09:13;;;;;;;1.60;1.00;;;17.20;98.20;;;;;;5010124;28;20468;-80
2021/07/15 00:11:44;;;;;;;1.60;1.00;;;17.20;98.20;;;;;;4998921;28;20475;-81
2021/07/15 00:14:12;;;;;;;1.60;0.90;;;17.20;98.20;;;;;;5006542;28;20480;-81
2021/07/15 00:16:42;;;;;;;1.60;0.90;;;17.20;98.20;;;;;;4999761;28;20498;-82
2021/07/15 00:19:11;;;;;;;1.60;1.00;;;17.20;98.20;;;;;;5004056;28;20465;-82
2021/07/15 00:21:40;;;;;;;1.60;1.00;;;17.20;98.20;;;;;;4999955;28;21109;-81
2021/07/15 00:24:08;;;;;;;1.60;1.00;;;17.20;98.20;;;;;;5013262;28;20461;-82
2021/07/15 00:26:35;;;;;;;1.60;1.00;;;17.10;98.20;;;;;;4996684;28;20487;-81
2021/07/15 00:29:01;;;;;;;1.60;1.00;;;17.10;98.20;;;;;;5012580;28;20653;-82
2021/07/15 00:31:28;;;;;;;1.60;0.90;;;17.10;98.20;;;;;;4998757;28;20902;-81
2021/07/15 00:33:56;;;;;;;1.60;1.00;;;17.10;98.20;;;;;;5011875;28;20544;-82
2021/07/15 00:36:23;;;;;;;1.60;1.00;;;17.10;98.20;;;;;;4991689;28;20891;-81
2021/07/15 00:38:51;;;;;;;1.60;1.00;;;17.10;98.20;;;;;;5008868;28;20464;-81
2021/07/15 00:41:17;;;;;;;1.60;1.00;;;17.10;98.20;;;;;;4985117;28;20468;-81
2021/07/15 00:43:44;;;;;;;1.60;1.00;;;17.10;98.20;;;;;;5016153;28;20465;-83
2021/07/15 00:46:14;;;;;;;1.60;1.00;;;17.10;98.20;;;;;;4988491;28;20664;-83
2021/07/15 00:48:43;;;;;;;1.60;1.00;;;17.10;98.20;;;;;;5016734;28;20476;-83
2021/07/15 00:51:11;;;;;;;1.60;0.97;;;17.10;98.20;;;;;;4988367;28;20562;-82
2021/07/15 00:53:39;;;;;;;1.60;0.90;;;17.10;98.20;;;;;;5015700;28;20461;-82
2021/07/15 00:56:11;;;;;;;1.60;0.90;;;17.10;98.20;;;;;;4988518;28;21087;-81
2021/07/15 00:58:40;;;;;;;1.60;1.00;;;17.10;98.20;;;;;;5018897;28;20477;-81
2021/07/15 01:01:09;;;;;;;1.60;1.00;;;17.10;98.20;;;;;;4986196;28;21180;-81
2021/07/15 01:03:36;;;;;;;1.60;1.00;;;17.10;98.20;;;;;;5016981;28;20461;-82
2021/07/15 01:06:03;;;;;;;1.60;1.00;;;17.10;98.20;;;;;;4984422;28;20837;-81
2021/07/15 01:08:30;;;;;;;1.60;1.00;;;17.10;98.20;;;;;;5016682;28;20967;-82
2021/07/15 01:11:03;;;;;;;1.60;1.00;;;17.10;98.20;;;;;;4980047;28;20489;-82
2021/07/15 01:13:45;;;;;;;1.60;0.90;;;17.10;98.20;;;;;;5016118;28;20461;-83
2021/07/15 01:16:39;;;;;;;1.60;1.00;;;17.00;98.20;;;;;;4987391;28;20478;-82
2021/07/15 01:19:46;;;;;;;1.60;0.97;;;17.00;98.20;;;;;;4991190;28;20473;-82
2021/07/15 01:22:18;;;;;;;1.63;1.00;;;17.00;98.20;;;;;;5003338;28;20982;-82
2021/07/15 01:25:18;;;;;;;1.60;1.00;;;17.00;98.20;;;;;;4997244;28;20496;-82
2021/07/15 01:27:57;;;;;;;1.60;1.00;;;17.00;98.20;;;;;;5005147;28;20758;-82
2021/07/15 01:30:28;;;;;;;1.60;0.93;;;17.00;98.20;;;;;;4989328;28;20491;-81
2021/07/15 01:33:02;;;;;;;1.60;1.00;;;17.00;98.20;;;;;;5009354;28;20484;-83
2021/07/15 01:35:32;;;;;;;1.60;1.00;;;17.00;98.20;;;;;;4994691;28;20493;-83
2021/07/15 01:38:02;;;;;;;1.60;1.10;;;17.00;98.20;;;;;;5011780;28;20478;-83
2021/07/15 01:40:36;;;;;;;1.60;1.00;;;17.00;98.20;;;;;;4994649;28;20455;-82
2021/07/15 01:43:07;;;;;;;1.60;1.00;;;16.90;98.20;;;;;;5010321;28;20479;-81
2021/07/15 01:45:35;;;;;;;1.60;1.00;;;16.90;98.20;;;;;;4981274;28;20864;-82
2021/07/15 01:48:02;;;;;;;1.60;1.00;;;16.90;98.20;;;;;;5011223;28;20491;-81
2021/07/15 01:50:30;;;;;;;1.60;1.00;;;16.90;98.20;;;;;;4992918;28;20496;-82
2021/07/15 01:53:00;;;;;;;1.60;1.10;;;16.90;98.20;;;;;;5007574;28;20494;-82
2021/07/15 01:55:34;;;;;;;1.60;1.00;;;16.90;98.20;;;;;;4989986;28;20523;-82
2021/07/15 01:58:03;;;;;;;1.60;1.00;;;16.90;98.20;;;;;;4997209;28;20487;-82
2021/07/15 02:00:33;;;;;;;1.60;1.00;;;16.90;98.20;;;;;;4987755;28;20465;-83
2021/07/15 02:03:06;;;;;;;1.60;1.00;;;16.90;98.20;;;;;;5002808;28;20571;-82
2021/07/15 02:05:35;;;;;;;1.63;1.00;;;16.90;98.20;;;;;;4987878;28;20499;-81
2021/07/15 02:08:04;;;;;;;1.60;1.00;;;16.90;98.20;;;;;;5000455;28;20484;-82
2021/07/15 02:10:34;;;;;;;1.60;1.00;;;16.80;98.20;;;;;;4988780;28;20828;-83
2021/07/15 02:13:01;;;;;;;1.60;1.00;;;16.90;98.20;;;;;;5009539;28;20482;-82
2021/07/15 02:15:29;;;;;;;1.60;1.00;;;16.80;98.20;;;;;;4992463;28;20480;-82
2021/07/15 02:17:57;;;;;;;1.60;1.00;;;16.80;98.20;;;;;;4997584;28;20483;-82
2021/07/15 02:20:26;;;;;;;1.60;1.00;;;16.80;98.20;;;;;;4992517;28;20472;-82
2021/07/15 02:22:55;;;;;;;1.60;1.00;;;16.80;98.20;;;;;;5006990;28;20482;-83
2021/07/15 02:25:23;;;;;;;1.60;1.00;;;16.80;98.20;;;;;;4991661;28;20487;-82
2021/07/15 02:27:52;;;;;;;1.60;1.00;;;16.80;98.20;;;;;;5002547;28;20487;-82
2021/07/15 02:30:19;;;;;;;1.60;1.00;;;16.80;98.20;;;;;;4993690;28;20461;-82
2021/07/15 02:32:52;;;;;;;1.60;1.00;;;16.80;98.20;;;;;;5007546;28;20522;-83
2021/07/15 02:35:20;;;;;;;1.60;1.00;;;16.80;98.20;;;;;;4993468;28;20495;-83
2021/07/15 02:37:52;;;;;;;1.60;0.90;;;16.80;98.20;;;;;;5000758;28;20906;-83
2021/07/15 02:40:19;;;;;;;1.60;1.00;;;16.80;98.20;;;;;;4990135;28;20899;-82
2021/07/15 02:42:46;;;;;;;1.60;1.00;;;16.80;98.20;;;;;;5007229;28;20500;-83
2021/07/15 02:45:15;;;;;;;1.60;1.00;;;16.80;98.20;;;;;;4998988;28;20477;-82
2021/07/15 02:47:42;;;;;;;1.60;1.00;;;16.90;98.20;;;;;;5008311;28;20468;-82
2021/07/15 02:50:10;;;;;;;1.60;0.90;;;16.90;98.20;;;;;;5000774;28;20468;-83
2021/07/15 02:52:38;;;;;;;1.60;1.00;;;16.90;98.20;;;;;;4997359;28;20476;-82
2021/07/15 02:55:07;;;;;;;1.60;1.00;;;16.90;98.20;;;;;;4989620;28;20480;-83
2021/07/15 02:57:41;;;;;;;1.60;0.90;;;17.00;98.20;;;;;;4996997;28;20487;-84
2021/07/15 03:00:11;;;;;;;1.60;0.93;;;17.00;98.20;;;;;;4993917;28;20460;-82
2021/07/15 03:02:46;;;;;;;1.60;1.00;;;17.00;98.20;;;;;;4998104;28;20538;-84
2021/07/15 03:05:17;;;;;;;1.60;1.00;;;17.00;98.20;;;;;;4995228;28;20490;-83
2021/07/15 03:07:48;;;;;;;1.60;1.00;;;17.00;98.20;;;;;;5006471;28;20478;-83
2021/07/15 03:10:18;;;;;;;1.60;1.00;;;16.90;98.20;;;;;;4988496;28;20468;-82
2021/07/15 03:12:45;;;;;;;1.60;1.00;;;17.00;98.20;;;;;;5000569;28;20492;-83
2021/07/15 03:15:14;;;;;;;1.60;1.00;;;16.90;98.20;;;;;;4987916;28;20983;-84
2021/07/15 03:17:48;;;;;;;1.60;1.00;;;16.90;98.20;;;;;;5005599;28;20480;-83
2021/07/15 03:20:18;;;;;;;1.60;1.00;;;16.80;98.20;;;;;;4986974;28;20464;-82
2021/07/15 03:22:48;;;;;;;1.60;1.00;;;16.80;98.20;;;;;;4998269;28;20487;-82
2021/07/15 03:25:20;;;;;;;1.63;1.00;;;16.80;98.20;;;;;;4989054;28;20481;-82
2021/07/15 03:27:50;;;;;;;1.60;0.97;;;16.80;98.20;;;;;;5008627;28;20546;-83
2021/07/15 03:30:18;;;;;;;1.60;1.00;;;16.80;98.20;;;;;;4988275;28;20947;-82
2021/07/15 03:32:48;;;;;;;1.60;1.00;;;16.80;98.20;;;;;;4994335;28;20503;-83
2021/07/15 03:35:15;;;;;;;1.60;1.00;;;16.80;98.20;;;;;;4985379;28;20492;-83
2021/07/15 03:37:43;;;;;;;1.60;1.00;;;16.70;98.20;;;;;;5003832;28;20482;-82
2021/07/15 03:40:11;;;;;;;1.60;1.00;;;16.70;98.20;;;;;;4992992;28;20472;-82
2021/07/15 03:42:40;;;;;;;1.60;1.00;;;16.70;98.20;;;;;;5005326;28;20563;-82
2021/07/15 03:45:08;;;;;;;1.60;1.00;;;16.60;98.20;;;;;;4991818;28;20487;-83
2021/07/15 03:47:36;;;;;;;1.60;0.97;;;16.70;98.20;;;;;;4999826;28;20475;-82
2021/07/15 03:50:04;;;;;;;1.60;1.00;;;16.70;98.20;;;;;;4992468;28;20492;-83
2021/07/15 03:52:31;;;;;;;1.60;0.90;;;16.70;98.20;;;;;;5001362;28;21035;-83
2021/07/15 03:54:59;;;;;;;1.60;0.97;;;16.70;98.20;;;;;;4991213;28;20856;-82
2021/07/15 03:57:28;;;;;;;1.60;1.00;;;16.70;98.20;;;;;;4997936;28;20494;-82
2021/07/15 03:59:59;;;;;;;1.60;1.00;;;16.70;98.20;;;;;;4993802;28;20532;-83
2021/07/15 04:02:28;;;;;;;1.60;0.90;;;16.70;98.20;;;;;;5009931;28;20490;-83
2021/07/15 04:04:58;;;;;;;1.60;1.00;;;16.70;98.20;;;;;;4998533;28;20491;-82
2021/07/15 04:07:27;;;;;;;1.60;1.00;;;16.80;98.20;;;;;;5001182;28;20909;-83
2021/07/15 04:09:55;;;;;;;1.60;0.90;;;16.80;98.20;;;;;;4994959;28;20555;-81
2021/07/15 04:12:23;;;;;;;1.60;1.00;;;16.80;98.20;;;;;;5006335;28;20479;-82
2021/07/15 04:15:06;;;;;;;1.60;0.90;;;16.80;98.20;;;;;;4995910;28;20996;-82
2021/07/15 04:17:36;;;;;;;1.60;1.00;;;16.80;98.20;;;;;;4998906;28;20650;-82
2021/07/15 04:20:06;;;;;;;1.60;1.00;;;16.90;98.20;;;;;;4993970;28;20469;-83
2021/07/15 04:22:34;;;;;;;1.60;1.00;;;16.90;98.20;;;;;;4998785;28;20491;-84
2021/07/15 04:25:02;;;;;;;1.60;1.00;;;16.90;98.20;;;;;;4989411;28;20489;-83
2021/07/15 04:27:30;;;;;;;1.60;1.00;;;16.90;98.20;;;;;;5006470;28;20527;-83
2021/07/15 04:30:02;;;;;;;1.60;1.00;;;16.90;98.20;;;;;;4995464;28;20464;-82
2021/07/15 04:32:34;;;;;;;1.60;1.00;;;17.00;98.20;;;;;;5004312;28;20558;-82
2021/07/15 04:35:02;;;;;;;1.60;0.90;;;16.90;98.20;;;;;;4994002;28;20492;-83
2021/07/15 04:37:29;;;;;;;1.60;1.10;;;17.00;98.20;;;;;;5002531;28;20471;-84
2021/07/15 04:39:57;;;;;;;1.60;1.00;;;17.00;98.20;;;;;;4990851;28;20493;-83
2021/07/15 04:42:25;;;;;;;1.60;1.00;;;17.10;98.20;;;;;;4999831;28;20492;-82
2021/07/15 04:44:53;;;;;;;1.60;1.00;;;17.10;98.20;;;;;;4996815;28;20492;-82
2021/07/15 04:47:22;;;;;;;1.60;1.00;;;17.20;98.20;;;;;;5001448;28;20495;-82
2021/07/15 04:49:51;;;;;;;1.60;1.00;;;17.30;98.20;;;;;;4994131;28;20524;-80
2021/07/15 04:52:19;;;;;;;1.60;1.00;;;17.30;98.20;;;;;;4996132;28;20472;-81
2021/07/15 04:54:47;;;;;;;1.60;1.00;;;17.30;98.20;;;;;;4992342;28;20628;-80
2021/07/15 04:57:14;;;;;;;1.60;1.00;;;17.30;98.20;;;;;;4995992;28;20487;-79
2021/07/15 04:59:42;;;;;;;1.60;0.90;;;17.30;98.20;;;;;;4992423;28;20469;-83
2021/07/15 05:02:09;;;;;;;1.60;1.00;;;17.30;98.20;;;;;;4993933;28;20786;-82
2021/07/15 05:04:36;;;;;;;1.60;1.00;;;17.30;98.20;;;;;;4995712;28;20497;-82
2021/07/15 05:07:05;;;;;;;1.60;0.97;;;17.30;98.20;;;;;;4993630;28;20759;-80
2021/07/15 05:09:32;;;;;;;1.60;1.00;;;17.20;98.20;;;;;;5000894;28;20474;-82
2021/07/15 05:11:59;;;;;;;1.60;1.00;;;17.20;98.20;;;;;;4997648;28;20483;-79
2021/07/15 05:14:26;;;;;;;1.60;0.90;;;17.30;98.20;;;;;;5000729;28;20457;-80
2021/07/15 05:16:53;;;;;;;1.60;0.90;;;17.30;98.20;;;;;;4994198;28;20480;-81
2021/07/15 05:19:20;;;;;;;1.60;1.00;;;17.40;98.20;;;;;;5003514;28;20944;-82
2021/07/15 05:21:47;;;;;;;1.60;0.90;;;17.50;98.20;;;;;;4994429;28;20482;-83
2021/07/15 05:24:15;;;;;;;1.60;0.97;;;17.70;98.20;;;;;;5006784;28;20464;-83
2021/07/15 05:26:42;;;;;;;1.60;0.90;;;18.00;98.20;;;;;;5002221;28;20544;-83
2021/07/15 05:29:12;;;;;;;1.60;0.90;;;18.20;98.20;;;;;;5011297;28;20457;-83
2021/07/15 05:31:39;;;;;;;1.60;0.90;;;18.30;98.20;;;;;;4999639;28;20505;-83
2021/07/15 05:34:06;;;;;;;1.60;0.90;;;18.40;98.20;;;;;;5009054;28;20457;-82
2021/07/15 05:36:33;;;;;;;1.63;1.00;;;18.40;98.20;;;;;;4999926;28;21013;-82
2021/07/15 05:38:59;;;;;;;1.60;1.00;;;18.50;98.20;;;;;;5014701;28;20470;-82
2021/07/15 05:41:27;;;;;;;1.60;1.00;;;18.50;98.20;;;;;;4988090;28;20503;-82
2021/07/15 05:43:54;;;;;;;1.63;1.00;;;18.50;98.20;;;;;;5004326;28;20461;-82
2021/07/15 05:46:21;;;;;;;1.60;0.90;;;18.50;98.20;;;;;;4992573;28;20480;-82
2021/07/15 05:48:48;;;;;;;1.60;0.90;;;18.40;98.20;;;;;;5014106;28;20468;-81
2021/07/15 05:51:15;;;;;;;1.60;0.93;;;18.50;98.20;;;;;;4987958;28;20544;-81
2021/07/15 05:53:42;;;;;;;1.60;0.90;;;18.50;98.20;;;;;;5008336;28;20485;-81
2021/07/15 05:56:08;;;;;;;1.63;1.00;;;18.50;98.20;;;;;;4987550;28;20475;-81
2021/07/15 05:58:36;;;;;;;1.60;0.97;;;18.50;98.20;;;;;;5011316;28;20647;-82
2021/07/15 06:01:04;;;;;;;1.60;1.00;;;18.50;98.20;;;;;;4986132;28;20467;-81
2021/07/15 06:03:31;;;;;;;1.60;1.00;;;18.40;98.20;;;;;;5015603;28;20453;-81
2021/07/15 06:05:58;;;;;;;1.67;1.00;;;18.50;98.20;;;;;;4979557;28;20499;-81
2021/07/15 06:08:24;;;;;;;1.60;0.90;;;18.50;98.20;;;;;;5005973;28;20468;-82
2021/07/15 06:10:51;;;;;;;1.60;0.93;;;18.50;98.20;;;;;;4987335;28;21040;-82
2021/07/15 06:13:18;;;;;;;1.60;0.90;;;18.60;98.20;;;;;;5021269;28;20503;-82
2021/07/15 06:15:46;;;;;;;1.60;0.90;;;18.60;98.20;;;;;;4984110;28;20495;-82
2021/07/15 06:18:13;;;;;;;1.60;0.90;;;18.60;98.20;;;;;;5003057;28;20485;-81
2021/07/15 06:20:40;;;;;;;1.63;1.00;;;18.60;98.20;;;;;;4992082;28;20465;-82
2021/07/15 06:23:07;;;;;;;1.63;1.00;;;18.60;98.20;;;;;;5009361;28;20638;-80
2021/07/15 06:25:34;;;;;;;1.60;0.90;;;18.60;98.20;;;;;;4990010;28;20494;-82
2021/07/15 06:28:00;;;;;;;1.60;0.90;;;18.70;98.20;;;;;;4997861;28;20484;-81
2021/07/15 06:30:27;;;;;;;1.60;0.90;;;18.70;98.20;;;;;;4984525;28;21002;-79
2021/07/15 06:32:57;;;;;;;1.60;1.00;;;18.70;98.20;;;;;;5002900;28;20575;-80
2021/07/15 06:35:24;;;;;;;1.60;1.00;;;18.70;98.20;;;;;;4990938;28;20579;-81
2021/07/15 06:37:54;;;;;;;1.60;0.97;;;18.80;98.20;;;;;;5007122;28;20498;-80
2021/07/15 06:40:21;;;;;;;1.60;0.93;;;18.90;98.20;;;;;;4986415;28;20976;-83
2021/07/15 06:42:49;;;;;;;1.60;1.00;;;18.90;98.20;;;;;;5003945;28;20499;-81
2021/07/15 06:45:17;;;;;;;1.60;0.97;;;18.90;98.20;;;;;;4990769;28;20572;-82
2021/07/15 06:47:44;;;;;;;1.60;0.93;;;18.90;98.20;;;;;;4992764;28;20483;-81
2021/07/15 06:50:15;;;;;;;1.60;0.90;;;18.90;98.20;;;;;;4989019;28;20475;-81
2021/07/15 06:52:42;;;;;;;1.60;1.00;;;19.00;98.20;;;;;;5001950;28;20864;-81
2021/07/15 06:55:10;;;;;;;1.60;0.97;;;19.00;98.20;;;;;;4980969;28;20870;-81
2021/07/15 06:57:37;;;;;;;1.63;1.03;;;19.00;98.20;;;;;;5001530;28;20476;-81
2021/07/15 07:00:08;;;;;;;1.60;0.90;;;19.10;98.20;;;;;;4983275;28;20466;-80
2021/07/15 07:02:38;;;;;;;1.67;1.07;;;19.20;98.20;;;;;;4993773;28;20485;-82
2021/07/15 07:05:07;;;;;;;1.60;0.90;;;19.20;98.20;;;;;;4980679;28;20786;-79
2021/07/15 07:07:35;;;;;;;1.60;0.90;;;19.20;98.20;;;;;;4993762;28;20500;-80
2021/07/15 07:10:02;;;;;;;1.60;0.90;;;19.30;98.20;;;;;;4984287;28;20476;-80
2021/07/15 07:12:29;;;;;;;1.60;0.90;;;19.30;98.20;;;;;;5005079;28;20533;-81
2021/07/15 07:15:00;;;;;;;1.60;1.00;;;19.40;98.20;;;;;;4989041;28;20517;-79
2021/07/15 07:27:41;;;;;;;1.60;0.90;;;19.80;98.20;;;;;;4925989;28;20785;-80
2021/07/15 07:30:59;;;;;;;1.63;0.90;;;19.90;98.20;;;;;;4995912;28;20521;-79
2021/07/15 07:33:57;;;;;;;1.60;0.90;;;20.00;98.20;;;;;;4914014;29;20477;-80
2021/07/15 07:39:49;;;;;;;1.60;0.90;;;20.00;98.20;;;;;;4974660;28;20990;-79
2021/07/15 07:42:52;;;;;;;1.60;0.90;;;19.90;98.20;;;;;;4964404;28;20485;-79
2021/07/15 07:45:18;;;;;;;1.60;0.90;;;20.00;98.20;;;;;;4976934;28;20480;-80
2021/07/15 07:48:03;;;;;;;1.60;0.90;;;20.00;98.20;;;;;;4998818;28;21907;-78
2021/07/15 07:50:32;;;;;;;1.60;0.90;;;20.00;98.20;;;;;;4991765;28;20464;-79
2021/07/15 07:52:59;;;;;;;1.60;0.97;;;20.00;98.20;;;;;;5002774;28;20480;-80
2021/07/15 07:55:36;;;;;;;1.60;0.90;;;20.00;98.20;;;;;;4988911;28;21082;-81
2021/07/15 07:58:04;;;;;;;1.60;0.90;;;20.10;98.20;;;;;;5005619;28;20498;-81
2021/07/15 08:00:33;;;;;;;1.60;0.90;;;20.10;98.20;;;;;;4992295;28;20843;-81
2021/07/15 08:03:07;;;;;;;1.63;1.10;;;20.20;98.20;;;;;;4998240;28;20483;-80
2021/07/15 08:05:40;;;;;;;1.60;0.90;;;20.30;98.20;;;;;;4991312;28;21309;-80
2021/07/15 08:08:07;;;;;;;1.60;0.90;;;20.40;98.20;;;;;;5006255;28;21003;-79
2021/07/15 08:10:34;;;;;;;1.60;0.90;;;20.40;98.20;;;;;;4990307;28;21058;-79
2021/07/15 08:13:01;;;;;;;1.60;0.90;;;20.60;98.20;;;;;;5004618;28;20483;-79
2021/07/15 08:15:28;;;;;;;1.67;0.90;;;20.70;98.20;;;;;;4993331;28;20489;-81
2021/07/15 08:17:55;;;;;;;1.60;0.90;;;20.90;98.20;;;;;;5005748;28;20479;-80
2021/07/15 08:20:21;;;;;;;1.63;0.93;;;21.10;98.20;;;;;;4991158;28;20581;-79
2021/07/15 08:22:50;;;;;;;1.60;0.90;;;21.30;98.20;;;;;;5004578;28;20970;-78
2021/07/15 08:25:19;;;;;;;1.60;0.90;;;21.40;98.20;;;;;;4986236;28;21362;-80
2021/07/15 08:27:47;;;;;;;1.60;0.90;;;21.50;98.20;;;;;;5006521;28;20534;-79
2021/07/15 08:30:15;;;;;;;1.60;0.90;;;21.70;98.20;;;;;;4991806;28;20479;-78
2021/07/15 08:32:42;;;;;;;1.63;0.90;;;22.00;98.20;;;;;;5004209;28;20482;-80
2021/07/15 08:35:10;;;;;;;1.60;1.00;;;22.30;98.20;;;;;;4992987;28;20512;-79
2021/07/15 08:37:37;;;;;;;1.63;0.90;;;22.50;98.20;;;;;;4996398;28;20868;-78
2021/07/15 08:40:07;;;;;;;1.60;0.90;;;22.70;98.20;;;;;;4991010;28;20461;-78
2021/07/15 08:42:34;;;;;;;1.60;0.90;;;23.00;98.20;;;;;;5004209;28;20674;-77
2021/07/15 08:45:04;;;;;;;1.60;0.90;;;23.30;98.20;;;;;;4988439;28;20500;-77
2021/07/15 08:47:31;;;;;;;1.60;0.90;;;23.60;98.20;;;;;;5000429;28;20596;-79
2021/07/15 08:49:59;;;;;;;1.60;0.90;;;23.80;98.20;;;;;;4992358;28;20556;-80
2021/07/15 08:52:26;;;;;;;1.60;0.90;;;24.10;98.20;;;;;;4993679;28;20484;-78
2021/07/15 08:55:00;;;;;;;1.60;0.90;;;24.30;98.20;;;;;;4988993;28;20492;-77
2021/07/15 08:57:28;;;;;;;1.60;0.90;;;24.50;98.20;;;;;;5014659;28;20509;-76
2021/07/15 08:59:55;;;;;;;1.67;1.00;;;24.50;98.20;;;;;;4995390;28;20980;-79
2021/07/15 09:02:24;;;;;;;1.60;0.80;;;24.50;98.20;;;;;;5002193;28;20484;-74
2021/07/15 09:04:52;;;;;;;1.60;0.90;;;24.70;98.20;;;;;;4992783;28;20538;-75
2021/07/15 09:07:19;;;;;;;1.60;0.90;;;25.00;98.20;;;;;;4991848;28;20479;-75
2021/07/15 09:09:48;;;;;;;1.60;0.90;;;25.10;98.20;;;;;;4997847;28;20491;-75
2021/07/15 09:12:15;;;;;;;1.60;0.90;;;25.10;98.20;;;;;;4987834;28;20530;-76
2021/07/15 09:14:50;;;;;;;1.60;0.90;;;25.00;98.20;;;;;;4985708;28;21057;-76
2021/07/15 09:17:26;;;;;;;1.63;0.90;;;24.90;98.20;;;;;;4989232;28;20900;-76
2021/07/15 09:19:53;;;;;;;1.70;0.90;;;24.70;98.20;;;;;;4977527;28;20461;-77
2021/07/15 09:22:20;;;;;;;1.60;0.90;;;24.50;98.20;;;;;;4989940;28;20594;-76
2021/07/15 09:24:48;;;;;;;1.60;0.90;;;24.30;98.20;;;;;;4986757;28;20492;-77
2021/07/15 09:27:17;;;;;;;1.60;0.90;;;24.20;98.20;;;;;;4991584;28;20486;-76
2021/07/15 09:29:45;;;;;;;1.60;0.90;;;24.10;98.20;;;;;;4985821;28;20468;-77
2021/07/15 09:32:17;;;;;;;1.60;0.90;;;23.90;98.20;;;;;;4988002;28;20488;-78
2021/07/15 09:34:44;;;;;;;1.60;0.90;;;23.90;98.20;;;;;;4985404;28;20496;-78
2021/07/15 09:37:13;;;;;;;1.60;0.87;;;24.10;98.20;;;;;;4992789;28;21122;-77
2021/07/15 09:39:44;;;;;;;1.60;0.90;;;24.40;98.20;;;;;;4992254;28;20461;-77
2021/07/15 09:42:15;;;;;;;1.60;0.90;;;24.70;98.20;;;;;;4983125;28;20575;-77
2021/07/15 09:44:46;;;;;;;1.60;0.87;;;24.90;98.20;;;;;;4984732;28;20472;-77
2021/07/15 09:47:33;;;;;;;1.60;0.90;;;25.00;97.40;;;;;;4984132;28;20583;-77
2021/07/15 09:50:00;;;;;;;1.60;0.90;;;25.10;96.50;;;;;;4983864;28;20940;-77
2021/07/15 09:52:27;;;;;;;1.60;0.90;;;25.20;98.10;;;;;;4990837;28;20480;-77
2021/07/15 09:54:56;;;;;;;1.60;0.80;;;25.20;97.40;;;;;;4984139;28;20492;-77
2021/07/15 09:57:27;;;;;;;1.60;0.90;;;25.10;97.60;;;;;;4992289;28;21132;-77
2021/07/15 09:59:56;;;;;;;1.60;0.90;;;25.00;97.50;;;;;;4984209;28;20472;-78
2021/07/15 10:02:29;;;;;;;1.60;0.90;;;24.90;98.20;;;;;;4995626;28;20520;-77
2021/07/15 10:04:58;;;;;;;1.60;0.90;;;24.70;98.20;;;;;;4991430;28;20485;-78
2021/07/15 10:07:25;;;;;;;1.60;0.90;;;24.60;98.00;;;;;;5000548;28;20510;-80
2021/07/15 10:10:27;;;;;;;1.60;0.90;;;24.40;98.20;;;;;;4990341;28;20476;-79
2021/07/15 10:12:55;;;;;;;1.60;0.90;;;24.30;98.20;;;;;;5009347;28;20489;-77
2021/07/15 10:15:22;;;;;;;1.60;0.90;;;24.20;98.20;;;;;;4985307;28;20837;-78
2021/07/15 10:17:49;;;;;;;1.60;0.90;;;24.20;98.20;;;;;;5004020;28;20940;-78
2021/07/15 10:20:19;;;;;;;1.60;0.83;;;24.10;98.20;;;;;;4990568;28;20496;-79
2021/07/15 10:22:54;;;;;;;1.60;0.80;;;24.10;98.20;;;;;;5004016;28;20480;-78
2021/07/15 10:25:21;;;;;;;1.60;0.90;;;24.20;98.20;;;;;;4984762;28;20487;-78
2021/07/15 10:27:48;;;;;;;1.60;0.90;;;24.20;98.20;;;;;;4999176;28;20491;-79
2021/07/15 10:30:17;;;;;;;1.60;0.97;;;24.20;98.20;;;;;;4990285;28;20504;-78
2021/07/15 10:32:44;;;;;;;1.60;0.90;;;24.20;98.20;;;;;;5003629;28;20494;-79
2021/07/15 10:35:13;;;;;;;1.60;0.80;;;24.30;98.20;;;;;;4990614;28;20507;-79
2021/07/15 10:37:44;;;;;;;1.57;0.80;;;24.40;98.20;;;;;;5003698;28;20492;-79
2021/07/15 10:40:13;;;;;;;1.60;0.90;;;24.40;98.20;;;;;;4986211;28;20542;-79
2021/07/15 10:42:41;;;;;;;1.50;0.80;;;24.60;98.20;;;;;;4991204;28;20494;-79
2021/07/15 10:45:10;;;;;;;1.60;0.90;;;24.70;98.20;;;;;;4981686;28;20497;-79
2021/07/15 10:47:38;;;;;;;1.60;0.90;;;24.80;98.10;;;;;;4997922;28;20489;-79
2021/07/15 10:50:07;;;;;;;1.60;0.90;;;24.80;97.20;;;;;;4994381;28;20489;-79
2021/07/15 10:52:35;;;;;;;1.57;0.90;;;24.90;97.90;;;;;;5007746;28;20491;-79
2021/07/15 10:55:06;;;;;;;1.60;0.90;;;24.80;95.70;;;;;;4986310;28;20984;-79
2021/07/15 10:57:33;;;;;;;1.50;0.87;;;24.80;95.50;;;;;;5003382;28;20474;-79
2021/07/15 11:00:21;;;;;;;1.60;0.90;;;24.80;97.50;;;;;;4988668;28;20465;-80
2021/07/15 11:02:48;;;;;;;1.53;0.80;;;24.70;97.90;;;;;;5003563;28;20893;-78
2021/07/15 11:05:26;;;;;;;1.60;0.90;;;24.70;98.20;;;;;;4988063;28;20504;-79
2021/07/15 11:07:53;;;;;;;1.53;0.90;;;24.60;97.30;;;;;;5002791;28;20522;-79
2021/07/15 11:10:24;;;;;;;1.50;0.83;;;24.50;98.20;;;;;;4983662;28;20465;-79
2021/07/15 11:12:56;;;;;;;1.60;0.80;;;24.40;98.20;;;;;;5001990;28;20718;-78
2021/07/15 11:15:22;;;;;;;1.60;0.90;;;24.30;98.20;;;;;;4979110;28;20524;-78
2021/07/15 11:17:51;;;;;;;1.60;0.90;;;24.20;98.20;;;;;;5008254;28;20483;-79
2021/07/15 11:20:26;;;;;;;1.60;0.90;;;24.10;98.20;;;;;;4988454;28;20465;-78
2021/07/15 11:22:54;;;;;;;1.60;0.90;;;23.90;98.20;;;;;;4996143;28;20484;-78
2021/07/15 11:25:41;;;;;;;1.60;0.90;;;23.90;98.20;;;;;;4985529;28;20489;-77
2021/07/15 11:28:23;;;;;;;1.60;0.90;;;23.80;98.20;;;;;;5006724;28;20492;-79
2021/07/15 11:30:52;;;;;;;1.60;0.90;;;23.80;98.20;;;;;;4970556;28;20469;-78
2021/07/15 11:33:37;;;;;;;1.60;0.90;;;23.70;98.20;;;;;;5002196;28;20461;-79
2021/07/15 11:36:11;;;;;;;1.60;0.90;;;23.70;98.20;;;;;;4976286;28;20559;-79
2021/07/15 11:38:40;;;;;;;1.57;0.90;;;23.60;98.20;;;;;;5010912;28;21067;-80
2021/07/15 11:41:09;;;;;;;1.60;0.90;;;23.50;98.20;;;;;;4977759;28;20518;-79
2021/07/15 11:43:50;;;;;;;1.57;0.90;;;23.40;98.20;;;;;;5005767;28;20819;-79
2021/07/15 11:46:19;;;;;;;1.60;0.90;;;23.40;98.20;;;;;;4983215;28;21053;-79
2021/07/15 11:49:00;;;;;;;1.60;0.90;;;23.50;98.20;;;;;;5005482;28;20468;-78
2021/07/15 11:51:37;;;;;;;1.57;0.90;;;23.50;98.20;;;;;;4981830;28;20479;-79
2021/07/15 11:54:15;;;;;;;1.53;0.90;;;23.70;98.20;;;;;;4997301;28;20489;-79
2021/07/15 11:56:44;;;;;;;1.60;0.90;;;23.80;98.20;;;;;;4983355;28;20719;-78
2021/07/15 11:59:11;;;;;;;1.53;0.87;;;23.90;98.20;;;;;;5001226;28;20465;-78
2021/07/15 12:01:38;;;;;;;1.53;0.80;;;23.90;98.20;;;;;;4992881;28;20483;-79
2021/07/15 12:04:08;;;;;;;1.53;0.90;;;24.00;98.20;;;;;;5003981;28;20468;-79
2021/07/15 12:06:37;;;;;;;1.53;0.90;;;24.10;97.80;;;;;;4985987;28;20605;-80
2021/07/15 12:09:08;;;;;;;1.57;0.90;;;24.20;98.20;;;;;;5004407;28;20476;-79
2021/07/15 12:11:36;;;;;;;1.60;0.90;;;24.30;98.20;;;;;;4987790;28;20736;-79
2021/07/15 12:14:05;;;;;;;1.60;0.90;;;24.40;97.40;;;;;;5000981;28;20698;-78
2021/07/15 12:16:34;;;;;;;1.50;0.90;;;24.50;98.10;;;;;;4992509;28;20491;-79
2021/07/15 12:19:02;;;;;;;1.57;0.90;;;24.60;97.20;;;;;;5008135;28;20497;-77
2021/07/15 12:21:31;;;;;;;1.57;0.90;;;24.70;97.90;;;;;;4987960;28;20543;-79
2021/07/15 12:23:58;;;;;;;1.50;0.80;;;24.80;98.20;;;;;;5010856;28;20461;-79
2021/07/15 12:26:25;;;;;;;1.60;0.90;;;24.80;97.70;;;;;;4985972;28;20484;-79
2021/07/15 12:28:51;;;;;;;1.57;0.80;;;24.80;96.10;;;;;;5012530;28;20492;-79
2021/07/15 12:31:21;;;;;;;1.50;0.90;;;24.90;97.80;;;;;;4986856;28;20480;-81
2021/07/15 12:33:49;;;;;;;1.50;0.90;;;24.90;96.70;;;;;;5013282;28;20507;-80
2021/07/15 12:36:18;;;;;;;1.57;0.90;;;24.80;96.40;;;;;;4982695;28;20479;-79
2021/07/15 12:38:46;;;;;;;1.57;0.90;;;24.80;96.60;;;;;;5006288;28;20551;-78
2021/07/15 12:41:16;;;;;;;1.53;0.90;;;24.80;96.70;;;;;;4986293;28;20511;-78
2021/07/15 12:43:49;;;;;;;1.60;0.90;;;24.80;96.80;;;;;;5008258;28;20466;-78
2021/07/15 12:46:18;;;;;;;1.57;0.90;;;24.90;97.20;;;;;;4987753;28;20490;-79
2021/07/15 12:48:48;;;;;;;1.53;0.90;;;25.00;97.80;;;;;;5005922;28;20556;-79
2021/07/15 12:51:16;;;;;;;1.60;0.90;;;25.20;96.50;;;;;;4984138;28;20748;-82
2021/07/15 12:53:46;;;;;;;1.57;0.90;;;25.40;96.40;;;;;;5004274;28;20471;-81
2021/07/15 12:56:17;;;;;;;1.53;0.80;;;25.50;96.30;;;;;;4991841;28;20492;-82
2021/07/15 12:58:45;;;;;;;1.57;0.83;;;25.50;95.80;;;;;;5013841;28;20977;-82
2021/07/15 13:01:11;;;;;;;1.60;0.90;;;25.50;96.60;;;;;;4988682;28;20507;-82
2021/07/15 13:03:38;;;;;;;1.53;0.90;;;25.40;94.40;;;;;;5007873;28;20468;-79
2021/07/15 13:06:07;;;;;;;1.57;0.80;;;25.50;95.40;;;;;;4986172;28;20940;-79
2021/07/15 13:14:16;;;;;;;1.60;0.90;;;26.10;94.60;;;;;;5011922;28;20453;-83
2021/07/15 13:16:51;;;;;;;1.60;0.90;;;26.30;94.20;;;;;;4994351;28;21065;-84
2021/07/15 13:19:21;;;;;;;1.60;0.90;;;26.50;93.10;;;;;;5002231;28;20460;-81
2021/07/15 13:21:50;;;;;;;1.60;0.80;;;26.40;92.10;;;;;;4999263;28;20487;-80